Dundee, United Kingdom

9:43 PM GMT on February 19, 2017 (GMT +0000)
IDUNDEE2 | | Change Station

Elev 59 ft 56.46 °N, 2.98 °W | Updated 1 minute ago

Partly Cloudy
Partly Cloudy
51.6 °F
Feels Like 51.6 °F
N
13.0
Wind Variable Wind from ENE

Today
High -- | Low -- °F
--% Chance of Precip.
Yesterday
High -- | Low -- °F
Precip. -- in
Pressure 29.83 in
Visibility -9999.0 miles
Clouds
Dew Point 49 °F
Humidity 92%
Rainfall 0.00 in
Snow Depth Not available.
7:28 AM 5:23 PM
Last Quarter, 40% visible
METAR EGQL 192050Z 26020KT CAVOK 10/09 Q1010 BLU
Pressure 29.83 in
Visibility -9999.0 miles
Clouds
Dew Point 49 °F
Humidity 92%
Rainfall 0.00 in
Snow Depth Not available.
7:28 AM 5:23 PM
Last Quarter, 40% visible
METAR EGQL 192050Z 26020KT CAVOK 10/09 Q1010 BLU

Get Your Daily Forecast Email!

Thanks for signing up!

Be on the lookout for a verification email in your inbox.

You'll start receiving the daily forecast at 8 AM.

×

10-Day Weather Forecast

×

Almanac

Astronomy

Feb. 19, 2017 Rise Set
Actual Time
Civil Twilight
Nautical Twilight
Astronomical Twilight
Moon
Length of Visible Light
Length of Day
Tomorrow will be .
, % of the Moon is Illuminated

Today's Extremes

Country Highs Country Lows

Community

WunderPhotos

Upload Photos

1,962,540 photos uploaded!

WunderBlog® & News

Nearby

Air Quality

  Air Quality AQ Index Pollutant
Not available.

Snow Depth

Station Depth Elevation

Earthquake Activity

City Distance Mag. Time & Date
Minimum magnitude displayed is 2.5.

Coastal Water Temperatures

Place Temperature

Stations

Nearby Weather Stations

Station Location Temp. Windchill Dew Point Humidity Wind Precip. Elev Updated Type